Colon, Panama
Current Conditions -  °F | °C
As of 3:00 PM on Friday 28 Nov 2014 (Local Time) from MPMG Reporting Station
Scattered Clouds Scattered Clouds  
Wind Chill: 91°   Ceiling: Unl
Heat Index: 95°   Visibility: 6mi
Dew Point: 68°   Wind: 14mph
Humidity: 46%   Direction: 40°NE
Pressure: 29.74"   Gusts: NA
Location:  9.36°N, 79.9°W
Report Text: MPMG 282000Z 04012KT 9999 SCT020 33/20 Q1007 NOSIG
Loading
Personal Weather Stations






























Interactive Weather Map New forecast layout! Learn more

10-Day Weather Forecast

Advertisements
Track Severe Weather on mobile